sensor_id;sensor_type;location;lat;lon;timestamp;temperature;humidity
74540;SHT31;63087;51.086;-115.332;2022-12-11T19:25:43;5.68;60.16
74540;SHT31;63087;51.086;-115.332;2022-12-11T19:28:14;3.72;56.18
74540;SHT31;63087;51.086;-115.332;2022-12-11T19:30:45;2.17;54.39
74540;SHT31;63087;51.086;-115.332;2022-12-11T19:33:14;0.89;53.39
74540;SHT31;63087;51.086;-115.332;2022-12-11T19:35:42;-0.19;53.04
74540;SHT31;63087;51.086;-115.332;2022-12-11T19:38:09;-1.08;53.18
74540;SHT31;63087;51.086;-115.332;2022-12-11T19:40:38;-1.85;53.62
74540;SHT31;63087;51.086;-115.332;2022-12-11T19:43:07;-2.48;54.19
74540;SHT31;63087;51.086;-115.332;2022-12-11T19:45:35;-3.04;54.85
74540;SHT31;63087;51.086;-115.332;2022-12-11T19:48:02;-3.53;55.53
74540;SHT31;63087;51.086;-115.332;2022-12-11T19:50:30;-3.96;56.15
74540;SHT31;63087;51.086;-115.332;2022-12-11T19:53:00;-4.33;56.87
74540;SHT31;63087;51.086;-115.332;2022-12-11T19:55:27;-4.65;57.46
74540;SHT31;63087;51.086;-115.332;2022-12-11T19:57:54;-4.95;58.14
74540;SHT31;63087;51.086;-115.332;2022-12-11T20:00:22;-5.22;58.77
74540;SHT31;63087;51.086;-115.332;2022-12-11T20:02:49;-5.42;59.31
74540;SHT31;63087;51.086;-115.332;2022-12-11T20:05:16;-5.64;59.69
74540;SHT31;63087;51.086;-115.332;2022-12-11T20:07:43;-5.87;60.32
74540;SHT31;63087;51.086;-115.332;2022-12-11T20:10:10;-6.02;60.84
74540;SHT31;63087;51.086;-115.332;2022-12-11T20:12:37;-6.14;61.12
74540;SHT31;63087;51.086;-115.332;2022-12-11T20:15:04;-6.23;61.61
74540;SHT31;63087;51.086;-115.332;2022-12-11T20:17:32;-6.32;61.92
74540;SHT31;63087;51.086;-115.332;2022-12-11T20:20:01;-6.33;62.31
74540;SHT31;63087;51.086;-115.332;2022-12-11T20:22:28;-6.33;62.42
74540;SHT31;63087;51.086;-115.332;2022-12-11T20:24:55;-6.33;62.62
74540;SHT31;63087;51.086;-115.332;2022-12-11T20:27:22;-6.30;62.78
74540;SHT31;63087;51.086;-115.332;2022-12-11T20:29:51;-6.29;62.94
74540;SHT31;63087;51.086;-115.332;2022-12-11T20:32:18;-6.27;63.06
74540;SHT31;63087;51.086;-115.332;2022-12-11T20:34:45;-6.26;63.13
74540;SHT31;63087;51.086;-115.332;2022-12-11T20:37:12;-6.24;63.23
74540;SHT31;63087;51.086;-115.332;2022-12-11T20:39:40;-6.21;63.31
74540;SHT31;63087;51.086;-115.332;2022-12-11T20:42:07;-6.18;63.30
74540;SHT31;63087;51.086;-115.332;2022-12-11T20:44:35;-6.16;63.32
74540;SHT31;63087;51.086;-115.332;2022-12-11T20:47:02;-6.16;63.43
74540;SHT31;63087;51.086;-115.332;2022-12-11T20:49:31;-6.15;63.50
74540;SHT31;63087;51.086;-115.332;2022-12-11T20:51:59;-6.17;63.50
74540;SHT31;63087;51.086;-115.332;2022-12-11T20:54:26;-6.16;63.52
74540;SHT31;63087;51.086;-115.332;2022-12-11T20:56:53;-6.16;63.50
74540;SHT31;63087;51.086;-115.332;2022-12-11T20:59:21;-6.16;63.52
74540;SHT31;63087;51.086;-115.332;2022-12-11T21:01:52;-6.15;63.48
74540;SHT31;63087;51.086;-115.332;2022-12-11T21:04:20;-6.14;63.41
74540;SHT31;63087;51.086;-115.332;2022-12-11T21:06:48;-6.18;63.31
74540;SHT31;63087;51.086;-115.332;2022-12-11T21:09:22;-6.21;63.23
74540;SHT31;63087;51.086;-115.332;2022-12-11T21:11:51;-6.25;63.27
74540;SHT31;63087;51.086;-115.332;2022-12-11T21:14:22;-6.25;63.38
74540;SHT31;63087;51.086;-115.332;2022-12-11T21:16:49;-6.26;63.32
74540;SHT31;63087;51.086;-115.332;2022-12-11T21:19:16;-6.24;63.47
74540;SHT31;63087;51.086;-115.332;2022-12-11T21:21:44;-6.25;63.43
74540;SHT31;63087;51.086;-115.332;2022-12-11T21:24:13;-6.25;63.47
74540;SHT31;63087;51.086;-115.332;2022-12-11T21:26:51;-6.27;63.39
74540;SHT31;63087;51.086;-115.332;2022-12-11T21:29:21;-6.30;63.38
74540;SHT31;63087;51.086;-115.332;2022-12-11T21:31:50;-6.35;63.31
74540;SHT31;63087;51.086;-115.332;2022-12-11T21:34:20;-6.36;63.38
74540;SHT31;63087;51.086;-115.332;2022-12-11T21:36:47;-6.40;63.31
74540;SHT31;63087;51.086;-115.332;2022-12-11T21:39:19;-6.45;63.34
74540;SHT31;63087;51.086;-115.332;2022-12-11T21:41:50;-6.45;63.50
74540;SHT31;63087;51.086;-115.332;2022-12-11T21:44:18;-6.45;63.45
74540;SHT31;63087;51.086;-115.332;2022-12-11T21:46:46;-6.46;63.27
74540;SHT31;63087;51.086;-115.332;2022-12-11T21:49:13;-6.53;63.20
74540;SHT31;63087;51.086;-115.332;2022-12-11T21:51:40;-6.58;63.30
74540;SHT31;63087;51.086;-115.332;2022-12-11T21:54:09;-6.59;63.28
74540;SHT31;63087;51.086;-115.332;2022-12-11T21:56:39;-6.63;63.40
74540;SHT31;63087;51.086;-115.332;2022-12-11T21:59:06;-6.64;63.39
74540;SHT31;63087;51.086;-115.332;2022-12-11T22:01:34;-6.68;63.32
74540;SHT31;63087;51.086;-115.332;2022-12-11T22:04:09;-6.72;63.43
74540;SHT31;63087;51.086;-115.332;2022-12-11T22:06:38;-6.76;63.39
74540;SHT31;63087;51.086;-115.332;2022-12-11T22:09:12;-6.82;63.38
74540;SHT31;63087;51.086;-115.332;2022-12-11T22:11:41;-6.89;63.66
74540;SHT31;63087;51.086;-115.332;2022-12-11T22:14:13;-6.93;63.88
74540;SHT31;63087;51.086;-115.332;2022-12-11T22:16:42;-6.96;63.78
74540;SHT31;63087;51.086;-115.332;2022-12-11T22:19:11;-7.05;63.76
74540;SHT31;63087;51.086;-115.332;2022-12-11T22:21:38;-7.05;64.14
74540;SHT31;63087;51.086;-115.332;2022-12-11T22:24:05;-7.07;64.12
74540;SHT31;63087;51.086;-115.332;2022-12-11T22:26:32;-7.12;63.98
74540;SHT31;63087;51.086;-115.332;2022-12-11T22:28:59;-7.21;63.91
74540;SHT31;63087;51.086;-115.332;2022-12-11T22:31:26;-7.30;64.03
74540;SHT31;63087;51.086;-115.332;2022-12-11T22:33:53;-7.34;64.22
74540;SHT31;63087;51.086;-115.332;2022-12-11T22:36:21;-7.34;64.32
74540;SHT31;63087;51.086;-115.332;2022-12-11T22:38:50;-7.35;64.41
74540;SHT31;63087;51.086;-115.332;2022-12-11T22:43:55;-7.36;64.54
74540;SHT31;63087;51.086;-115.332;2022-12-11T22:46:25;-7.39;64.30
74540;SHT31;63087;51.086;-115.332;2022-12-11T22:48:56;-7.42;64.50
74540;SHT31;63087;51.086;-115.332;2022-12-11T22:51:23;-7.43;64.60
74540;SHT31;63087;51.086;-115.332;2022-12-11T22:53:51;-7.44;64.61
74540;SHT31;63087;51.086;-115.332;2022-12-11T22:56:18;-7.54;64.02
74540;SHT31;63087;51.086;-115.332;2022-12-11T22:58:47;-7.62;64.13
74540;SHT31;63087;51.086;-115.332;2022-12-11T23:01:16;-7.69;64.07
74540;SHT31;63087;51.086;-115.332;2022-12-11T23:03:47;-7.75;64.16
74540;SHT31;63087;51.086;-115.332;2022-12-11T23:06:15;-7.73;64.57
74540;SHT31;63087;51.086;-115.332;2022-12-11T23:08:45;-7.75;64.55
74540;SHT31;63087;51.086;-115.332;2022-12-11T23:13:50;-7.84;64.29
74540;SHT31;63087;51.086;-115.332;2022-12-11T23:16:17;-7.94;64.24
74540;SHT31;63087;51.086;-115.332;2022-12-11T23:18:45;-7.95;64.41
74540;SHT31;63087;51.086;-115.332;2022-12-11T23:21:12;-8.06;64.38
74540;SHT31;63087;51.086;-115.332;2022-12-11T23:23:40;-8.10;64.67
74540;SHT31;63087;51.086;-115.332;2022-12-11T23:26:08;-8.10;65.02
74540;SHT31;63087;51.086;-115.332;2022-12-11T23:28:37;-8.09;65.20
74540;SHT31;63087;51.086;-115.332;2022-12-11T23:31:05;-8.11;65.07
74540;SHT31;63087;51.086;-115.332;2022-12-11T23:33:32;-8.14;64.85
74540;SHT31;63087;51.086;-115.332;2022-12-11T23:35:59;-8.23;64.85
74540;SHT31;63087;51.086;-115.332;2022-12-11T23:38:26;-8.23;65.10
74540;SHT31;63087;51.086;-115.332;2022-12-11T23:40:54;-8.23;65.17
74540;SHT31;63087;51.086;-115.332;2022-12-11T23:43:23;-8.25;65.08
74540;SHT31;63087;51.086;-115.332;2022-12-11T23:45:50;-8.36;64.89
74540;SHT31;63087;51.086;-115.332;2022-12-11T23:48:17;-8.38;65.16
74540;SHT31;63087;51.086;-115.332;2022-12-11T23:50:45;-8.39;65.33
74540;SHT31;63087;51.086;-115.332;2022-12-11T23:53:13;-8.40;65.37
74540;SHT31;63087;51.086;-115.332;2022-12-11T23:55:40;-8.44;65.42
74540;SHT31;63087;51.086;-115.332;2022-12-11T23:58:09;-8.51;65.50
